sensor_id;sensor_type;location;lat;lon;timestamp;pressure;altitude;pressure_sealevel;temperature;humidity
5062;BME280;2351;50.812;12.872;2023-04-22T00:00:40;97604.34;;;9.19;67.57
5062;BME280;2351;50.812;12.872;2023-04-22T00:03:12;97600.72;;;9.21;67.62
5062;BME280;2351;50.812;12.872;2023-04-22T00:05:43;97602.66;;;9.18;67.01
5062;BME280;2351;50.812;12.872;2023-04-22T00:08:15;97597.19;;;9.10;66.26
5062;BME280;2351;50.812;12.872;2023-04-22T00:10:47;97599.38;;;9.05;67.28
5062;BME280;2351;50.812;12.872;2023-04-22T00:13:18;97590.09;;;9.01;67.20
5062;BME280;2351;50.812;12.872;2023-04-22T00:15:52;97592.97;;;8.98;67.59
5062;BME280;2351;50.812;12.872;2023-04-22T00:18:23;97592.13;;;8.97;67.71
5062;BME280;2351;50.812;12.872;2023-04-22T00:20:55;97591.03;;;9.00;67.92
5062;BME280;2351;50.812;12.872;2023-04-22T00:23:27;97588.16;;;9.03;67.58
5062;BME280;2351;50.812;12.872;2023-04-22T00:25:59;97582.16;;;9.01;67.72
5062;BME280;2351;50.812;12.872;2023-04-22T00:28:31;97586.84;;;8.97;67.45
5062;BME280;2351;50.812;12.872;2023-04-22T00:31:04;97578.50;;;8.92;67.05
5062;BME280;2351;50.812;12.872;2023-04-22T00:33:36;97582.38;;;8.88;67.13
5062;BME280;2351;50.812;12.872;2023-04-22T00:36:08;97579.41;;;8.81;67.08
5062;BME280;2351;50.812;12.872;2023-04-22T00:38:41;97577.16;;;8.77;67.02
5062;BME280;2351;50.812;12.872;2023-04-22T00:41:16;97576.19;;;8.78;67.27
5062;BME280;2351;50.812;12.872;2023-04-22T00:43:48;97574.75;;;8.73;68.65
5062;BME280;2351;50.812;12.872;2023-04-22T00:46:21;97575.94;;;8.81;68.90
5062;BME280;2351;50.812;12.872;2023-04-22T00:48:53;97577.34;;;8.85;69.02
5062;BME280;2351;50.812;12.872;2023-04-22T00:51:25;97571.66;;;8.89;69.01
5062;BME280;2351;50.812;12.872;2023-04-22T00:53:57;97576.25;;;8.87;68.12
5062;BME280;2351;50.812;12.872;2023-04-22T00:56:32;97571.81;;;8.88;68.33
5062;BME280;2351;50.812;12.872;2023-04-22T00:59:07;97565.63;;;8.78;67.67
5062;BME280;2351;50.812;12.872;2023-04-22T01:01:41;97562.53;;;8.72;68.66
5062;BME280;2351;50.812;12.872;2023-04-22T01:04:13;97559.78;;;8.74;68.60
5062;BME280;2351;50.812;12.872;2023-04-22T01:06:46;97557.84;;;8.76;69.03
5062;BME280;2351;50.812;12.872;2023-04-22T01:09:18;97559.63;;;8.76;68.60
5062;BME280;2351;50.812;12.872;2023-04-22T01:11:50;97558.94;;;8.73;68.47
5062;BME280;2351;50.812;12.872;2023-04-22T01:14:22;97547.63;;;8.62;68.13
5062;BME280;2351;50.812;12.872;2023-04-22T01:16:56;97555.75;;;8.49;67.77
5062;BME280;2351;50.812;12.872;2023-04-22T01:19:28;97556.94;;;8.44;68.11
5062;BME280;2351;50.812;12.872;2023-04-22T01:22:00;97555.63;;;8.39;67.82
5062;BME280;2351;50.812;12.872;2023-04-22T01:24:33;97554.72;;;8.28;67.73
5062;BME280;2351;50.812;12.872;2023-04-22T01:27:05;97552.13;;;8.17;67.75
5062;BME280;2351;50.812;12.872;2023-04-22T01:29:37;97556.75;;;8.04;67.40
5062;BME280;2351;50.812;12.872;2023-04-22T01:32:09;97555.47;;;7.87;67.06
5062;BME280;2351;50.812;12.872;2023-04-22T01:34:41;97556.72;;;7.71;67.41
5062;BME280;2351;50.812;12.872;2023-04-22T01:37:12;97553.75;;;7.53;67.02
5062;BME280;2351;50.812;12.872;2023-04-22T01:39:46;97563.03;;;7.36;67.22
5062;BME280;2351;50.812;12.872;2023-04-22T01:42:18;97561.25;;;7.25;67.62
5062;BME280;2351;50.812;12.872;2023-04-22T01:44:50;97558.38;;;7.17;67.27
5062;BME280;2351;50.812;12.872;2023-04-22T01:47:21;97550.47;;;7.05;67.37
5062;BME280;2351;50.812;12.872;2023-04-22T01:49:53;97552.88;;;6.97;67.78
5062;BME280;2351;50.812;12.872;2023-04-22T01:52:25;97549.16;;;6.88;67.75
5062;BME280;2351;50.812;12.872;2023-04-22T01:54:59;97550.72;;;6.80;67.98
5062;BME280;2351;50.812;12.872;2023-04-22T01:57:32;97546.13;;;6.70;67.66
5062;BME280;2351;50.812;12.872;2023-04-22T02:00:05;97546.72;;;6.62;68.17
5062;BME280;2351;50.812;12.872;2023-04-22T02:02:38;97549.94;;;6.55;67.83
5062;BME280;2351;50.812;12.872;2023-04-22T02:05:10;97551.25;;;6.49;68.29
5062;BME280;2351;50.812;12.872;2023-04-22T02:07:42;97542.88;;;6.44;68.51
5062;BME280;2351;50.812;12.872;2023-04-22T02:10:15;97552.88;;;6.39;68.27
5062;BME280;2351;50.812;12.872;2023-04-22T02:12:46;97549.03;;;6.31;68.78
5062;BME280;2351;50.812;12.872;2023-04-22T02:15:18;97550.47;;;6.24;68.53
5062;BME280;2351;50.812;12.872;2023-04-22T02:17:50;97551.88;;;6.17;68.98
5062;BME280;2351;50.812;12.872;2023-04-22T02:20:22;97548.88;;;6.10;68.81
5062;BME280;2351;50.812;12.872;2023-04-22T02:22:54;97552.88;;;6.03;68.96
5062;BME280;2351;50.812;12.872;2023-04-22T02:25:27;97543.88;;;5.94;69.24
5062;BME280;2351;50.812;12.872;2023-04-22T02:27:59;97551.47;;;5.86;69.50
5062;BME280;2351;50.812;12.872;2023-04-22T02:30:31;97552.16;;;5.77;69.63
5062;BME280;2351;50.812;12.872;2023-04-22T02:33:03;97544.69;;;5.70;70.05
5062;BME280;2351;50.812;12.872;2023-04-22T02:35:34;97549.69;;;5.62;70.43
5062;BME280;2351;50.812;12.872;2023-04-22T02:38:06;97539.63;;;5.56;70.60
5062;BME280;2351;50.812;12.872;2023-04-22T02:40:39;97550.34;;;5.53;70.82
5062;BME280;2351;50.812;12.872;2023-04-22T02:43:11;97541.22;;;5.46;71.20
5062;BME280;2351;50.812;12.872;2023-04-22T02:45:43;97543.22;;;5.42;71.36
5062;BME280;2351;50.812;12.872;2023-04-22T02:48:15;97545.47;;;5.35;71.71
5062;BME280;2351;50.812;12.872;2023-04-22T02:50:46;97547.56;;;5.30;71.88
5062;BME280;2351;50.812;12.872;2023-04-22T02:53:18;97537.28;;;5.27;72.22
5062;BME280;2351;50.812;12.872;2023-04-22T02:55:51;97537.19;;;5.28;72.69
5062;BME280;2351;50.812;12.872;2023-04-22T02:58:25;97533.38;;;5.33;73.00
5062;BME280;2351;50.812;12.872;2023-04-22T03:00:56;97537.38;;;5.38;73.44
5062;BME280;2351;50.812;12.872;2023-04-22T03:03:28;97525.19;;;5.37;74.76
5062;BME280;2351;50.812;12.872;2023-04-22T03:06:02;97526.63;;;5.41;74.51
5062;BME280;2351;50.812;12.872;2023-04-22T03:08:33;97524.00;;;5.41;75.43
5062;BME280;2351;50.812;12.872;2023-04-22T03:11:07;97519.41;;;5.45;76.05
5062;BME280;2351;50.812;12.872;2023-04-22T03:13:38;97521.16;;;5.45;76.08
5062;BME280;2351;50.812;12.872;2023-04-22T03:16:10;97521.16;;;5.45;75.60
5062;BME280;2351;50.812;12.872;2023-04-22T03:18:42;97516.13;;;5.41;75.85
5062;BME280;2351;50.812;12.872;2023-04-22T03:21:13;97519.00;;;5.38;76.03
5062;BME280;2351;50.812;12.872;2023-04-22T03:23:45;97522.16;;;5.31;76.42
5062;BME280;2351;50.812;12.872;2023-04-22T03:26:18;97528.59;;;5.26;76.95
5062;BME280;2351;50.812;12.872;2023-04-22T03:28:51;97521.66;;;5.25;76.78
5062;BME280;2351;50.812;12.872;2023-04-22T03:31:22;97527.72;;;5.26;76.77
5062;BME280;2351;50.812;12.872;2023-04-22T03:33:54;97523.34;;;5.26;77.03
5062;BME280;2351;50.812;12.872;2023-04-22T03:36:26;97529.53;;;5.25;77.09
5062;BME280;2351;50.812;12.872;2023-04-22T03:38:58;97523.44;;;5.25;77.34
5062;BME280;2351;50.812;12.872;2023-04-22T03:41:31;97530.28;;;5.27;77.55
5062;BME280;2351;50.812;12.872;2023-04-22T03:44:02;97529.81;;;5.34;77.89
5062;BME280;2351;50.812;12.872;2023-04-22T03:46:34;97539.06;;;5.39;78.10
5062;BME280;2351;50.812;12.872;2023-04-22T03:49:06;97533.56;;;5.42;78.43
5062;BME280;2351;50.812;12.872;2023-04-22T03:51:37;97530.72;;;5.46;78.38
5062;BME280;2351;50.812;12.872;2023-04-22T03:54:09;97534.19;;;5.46;78.30
5062;BME280;2351;50.812;12.872;2023-04-22T03:56:42;97523.78;;;5.45;78.53
5062;BME280;2351;50.812;12.872;2023-04-22T03:59:14;97526.97;;;5.37;79.71
5062;BME280;2351;50.812;12.872;2023-04-22T04:01:46;97515.75;;;5.35;80.21
5062;BME280;2351;50.812;12.872;2023-04-22T04:04:18;97522.06;;;5.32;79.89
5062;BME280;2351;50.812;12.872;2023-04-22T04:06:49;97529.19;;;5.30;79.82
5062;BME280;2351;50.812;12.872;2023-04-22T04:09:21;97529.53;;;5.25;80.86
5062;BME280;2351;50.812;12.872;2023-04-22T04:11:54;97527.94;;;5.23;80.65
5062;BME280;2351;50.812;12.872;2023-04-22T04:14:27;97540.34;;;5.21;80.93
5062;BME280;2351;50.812;12.872;2023-04-22T04:16:59;97537.09;;;5.17;82.49
5062;BME280;2351;50.812;12.872;2023-04-22T04:19:31;97535.34;;;5.18;82.05
5062;BME280;2351;50.812;12.872;2023-04-22T04:22:02;97530.78;;;5.20;81.70
5062;BME280;2351;50.812;12.872;2023-04-22T04:24:34;97537.72;;;5.21;81.96
5062;BME280;2351;50.812;12.872;2023-04-22T04:27:12;97526.28;;;5.22;82.72
5062;BME280;2351;50.812;12.872;2023-04-22T04:29:44;97532.16;;;5.25;83.30
5062;BME280;2351;50.812;12.872;2023-04-22T04:32:17;97531.69;;;5.32;83.09
5062;BME280;2351;50.812;12.872;2023-04-22T04:34:48;97527.09;;;5.35;84.00
5062;BME280;2351;50.812;12.872;2023-04-22T04:37:20;97530.31;;;5.39;83.35
5062;BME280;2351;50.812;12.872;2023-04-22T04:39:52;97524.88;;;5.42;84.24
5062;BME280;2351;50.812;12.872;2023-04-22T04:42:25;97525.59;;;5.44;84.27
5062;BME280;2351;50.812;12.872;2023-04-22T04:44:59;97533.34;;;5.46;84.87
5062;BME280;2351;50.812;12.872;2023-04-22T04:47:31;97524.09;;;5.53;85.92
5062;BME280;2351;50.812;12.872;2023-04-22T04:50:03;97518.66;;;5.67;86.36
5062;BME280;2351;50.812;12.872;2023-04-22T04:52:35;97527.25;;;6.07;87.60
5062;BME280;2351;50.812;12.872;2023-04-22T04:55:08;97512.88;;;6.46;88.40
5062;BME280;2351;50.812;12.872;2023-04-22T04:57:42;97515.31;;;6.84;88.13
5062;BME280;2351;50.812;12.872;2023-04-22T05:00:14;97513.88;;;7.25;88.99
5062;BME280;2351;50.812;12.872;2023-04-22T05:02:46;97512.41;;;7.76;91.49
5062;BME280;2351;50.812;12.872;2023-04-22T05:05:18;97509.84;;;8.19;89.88
5062;BME280;2351;50.812;12.872;2023-04-22T05:07:50;97507.88;;;8.53;90.02
5062;BME280;2351;50.812;12.872;2023-04-22T05:10:23;97511.44;;;8.73;91.43
5062;BME280;2351;50.812;12.872;2023-04-22T05:12:56;97516.72;;;8.73;90.83
5062;BME280;2351;50.812;12.872;2023-04-22T05:15:28;97518.72;;;8.81;90.84
5062;BME280;2351;50.812;12.872;2023-04-22T05:17:59;97524.75;;;8.93;91.02
5062;BME280;2351;50.812;12.872;2023-04-22T05:20:31;97522.72;;;9.07;90.65
5062;BME280;2351;50.812;12.872;2023-04-22T05:23:03;97522.34;;;9.21;90.25
5062;BME280;2351;50.812;12.872;2023-04-22T05:25:34;97523.69;;;9.46;90.23
5062;BME280;2351;50.812;12.872;2023-04-22T05:28:08;97520.50;;;9.82;90.24
5062;BME280;2351;50.812;12.872;2023-04-22T05:30:39;97527.78;;;10.29;90.05
5062;BME280;2351;50.812;12.872;2023-04-22T05:33:11;97527.88;;;10.77;91.27
5062;BME280;2351;50.812;12.872;2023-04-22T05:35:43;97525.88;;;10.89;89.57
5062;BME280;2351;50.812;12.872;2023-04-22T05:38:15;97530.25;;;11.08;90.58
5062;BME280;2351;50.812;12.872;2023-04-22T05:40:46;97532.16;;;11.15;87.29
5062;BME280;2351;50.812;12.872;2023-04-22T05:43:19;97533.66;;;11.28;86.90
5062;BME280;2351;50.812;12.872;2023-04-22T05:45:51;97527.56;;;11.45;84.54
5062;BME280;2351;50.812;12.872;2023-04-22T05:48:23;97525.50;;;11.67;84.66
5062;BME280;2351;50.812;12.872;2023-04-22T05:50:54;97520.06;;;11.87;79.99
5062;BME280;2351;50.812;12.872;2023-04-22T05:53:26;97518.72;;;12.19;81.97
5062;BME280;2351;50.812;12.872;2023-04-22T05:55:58;97516.91;;;12.64;73.64
5062;BME280;2351;50.812;12.872;2023-04-22T05:58:31;97522.09;;;13.35;78.57
5062;BME280;2351;50.812;12.872;2023-04-22T06:01:03;97516.97;;;14.01;66.85
5062;BME280;2351;50.812;12.872;2023-04-22T06:03:35;97516.63;;;14.62;70.30
5062;BME280;2351;50.812;12.872;2023-04-22T06:06:07;97509.91;;;15.08;69.31
5062;BME280;2351;50.812;12.872;2023-04-22T06:08:38;97521.09;;;15.74;66.05
5062;BME280;2351;50.812;12.872;2023-04-22T06:11:10;97503.72;;;16.10;52.99
5062;BME280;2351;50.812;12.872;2023-04-22T06:13:43;97503.09;;;16.84;49.81
5062;BME280;2351;50.812;12.872;2023-04-22T06:16:15;97498.09;;;17.41;51.61
5062;BME280;2351;50.812;12.872;2023-04-22T06:18:47;97503.03;;;17.74;49.96
5062;BME280;2351;50.812;12.872;2023-04-22T06:21:18;97507.00;;;18.00;43.14
5062;BME280;2351;50.812;12.872;2023-04-22T06:23:50;97501.28;;;17.67;43.34
5062;BME280;2351;50.812;12.872;2023-04-22T06:26:22;97504.19;;;18.52;43.60
5062;BME280;2351;50.812;12.872;2023-04-22T06:28:55;97503.28;;;18.45;41.51
5062;BME280;2351;50.812;12.872;2023-04-22T06:31:27;97495.75;;;19.12;41.56
5062;BME280;2351;50.812;12.872;2023-04-22T06:33:58;97502.38;;;19.65;38.50
5062;BME280;2351;50.812;12.872;2023-04-22T06:36:30;97497.78;;;20.21;40.54
5062;BME280;2351;50.812;12.872;2023-04-22T06:39:06;97497.19;;;20.72;40.25
5062;BME280;2351;50.812;12.872;2023-04-22T06:41:40;97493.44;;;20.87;39.64
5062;BME280;2351;50.812;12.872;2023-04-22T06:44:15;97498.41;;;20.90;38.62
5062;BME280;2351;50.812;12.872;2023-04-22T06:46:47;97491.41;;;20.62;37.37
5062;BME280;2351;50.812;12.872;2023-04-22T06:49:18;97494.50;;;20.39;38.01
5062;BME280;2351;50.812;12.872;2023-04-22T06:51:50;97491.56;;;20.00;37.99
5062;BME280;2351;50.812;12.872;2023-04-22T06:54:22;97497.59;;;19.53;37.94
5062;BME280;2351;50.812;12.872;2023-04-22T06:56:55;97497.88;;;19.23;39.09
5062;BME280;2351;50.812;12.872;2023-04-22T06:59:28;97497.78;;;19.10;38.78
5062;BME280;2351;50.812;12.872;2023-04-22T07:02:02;97493.63;;;19.01;38.32
5062;BME280;2351;50.812;12.872;2023-04-22T07:04:34;97491.38;;;18.76;38.51
5062;BME280;2351;50.812;12.872;2023-04-22T07:07:06;97490.09;;;18.72;39.02
5062;BME280;2351;50.812;12.872;2023-04-22T07:09:38;97492.63;;;18.73;38.29
5062;BME280;2351;50.812;12.872;2023-04-22T07:12:10;97489.28;;;18.71;37.42
5062;BME280;2351;50.812;12.872;2023-04-22T07:14:43;97493.63;;;18.72;37.56
5062;BME280;2351;50.812;12.872;2023-04-22T07:17:15;97496.09;;;18.45;37.20
5062;BME280;2351;50.812;12.872;2023-04-22T07:19:48;97491.94;;;18.43;37.59
5062;BME280;2351;50.812;12.872;2023-04-22T07:22:20;97482.59;;;18.54;37.83
5062;BME280;2351;50.812;12.872;2023-04-22T07:24:52;97477.72;;;18.71;38.19
5062;BME280;2351;50.812;12.872;2023-04-22T07:27:23;97482.50;;;18.97;38.15
5062;BME280;2351;50.812;12.872;2023-04-22T07:29:57;97478.72;;;19.26;37.55
5062;BME280;2351;50.812;12.872;2023-04-22T07:32:29;97488.50;;;19.54;36.56
5062;BME280;2351;50.812;12.872;2023-04-22T07:35:00;97482.06;;;20.11;36.55
5062;BME280;2351;50.812;12.872;2023-04-22T07:37:32;97478.56;;;20.10;35.24
5062;BME280;2351;50.812;12.872;2023-04-22T07:40:05;97489.81;;;19.72;35.08
5062;BME280;2351;50.812;12.872;2023-04-22T07:42:40;97478.50;;;19.28;35.05
5062;BME280;2351;50.812;12.872;2023-04-22T07:45:14;97485.06;;;19.19;36.20
5062;BME280;2351;50.812;12.872;2023-04-22T07:47:45;97483.06;;;19.27;36.78
5062;BME280;2351;50.812;12.872;2023-04-22T07:50:17;97476.91;;;19.40;35.66
5062;BME280;2351;50.812;12.872;2023-04-22T07:52:49;97478.75;;;19.89;35.81
5062;BME280;2351;50.812;12.872;2023-04-22T07:55:21;97470.09;;;20.54;34.45
5062;BME280;2351;50.812;12.872;2023-04-22T07:57:52;97474.22;;;20.56;33.36
5062;BME280;2351;50.812;12.872;2023-04-22T08:00:25;97463.25;;;20.71;33.86
5062;BME280;2351;50.812;12.872;2023-04-22T08:02:57;97469.69;;;20.84;34.02
5062;BME280;2351;50.812;12.872;2023-04-22T08:05:29;97462.59;;;21.03;32.65
5062;BME280;2351;50.812;12.872;2023-04-22T08:08:00;97473.97;;;21.05;32.79
5062;BME280;2351;50.812;12.872;2023-04-22T08:10:32;97471.59;;;21.35;33.37
5062;BME280;2351;50.812;12.872;2023-04-22T08:13:04;97469.91;;;21.48;33.68
5062;BME280;2351;50.812;12.872;2023-04-22T08:15:37;97465.13;;;21.95;31.56
5062;BME280;2351;50.812;12.872;2023-04-22T08:18:09;97471.00;;;22.43;30.61
5062;BME280;2351;50.812;12.872;2023-04-22T08:20:41;97464.91;;;22.22;30.33
5062;BME280;2351;50.812;12.872;2023-04-22T08:23:12;97458.09;;;21.88;31.51
5062;BME280;2351;50.812;12.872;2023-04-22T08:25:44;97460.25;;;22.11;30.46
5062;BME280;2351;50.812;12.872;2023-04-22T08:28:16;97462.78;;;21.67;30.00
5062;BME280;2351;50.812;12.872;2023-04-22T08:30:49;97462.84;;;21.54;31.33
5062;BME280;2351;50.812;12.872;2023-04-22T08:33:24;97475.16;;;21.75;32.01
5062;BME280;2351;50.812;12.872;2023-04-22T08:35:56;97466.50;;;22.05;31.10
5062;BME280;2351;50.812;12.872;2023-04-22T08:38:28;97457.13;;;22.14;31.34
5062;BME280;2351;50.812;12.872;2023-04-22T08:41:00;97457.00;;;22.27;29.00
5062;BME280;2351;50.812;12.872;2023-04-22T08:43:32;97465.19;;;21.82;28.75
5062;BME280;2351;50.812;12.872;2023-04-22T08:46:06;97458.91;;;21.49;30.48
5062;BME280;2351;50.812;12.872;2023-04-22T08:48:38;97468.69;;;21.44;30.13
5062;BME280;2351;50.812;12.872;2023-04-22T08:51:10;97463.91;;;21.46;30.85
5062;BME280;2351;50.812;12.872;2023-04-22T08:53:42;97459.09;;;21.61;31.10
5062;BME280;2351;50.812;12.872;2023-04-22T08:56:14;97463.78;;;21.79;29.01
5062;BME280;2351;50.812;12.872;2023-04-22T08:58:47;97461.53;;;21.70;29.62
5062;BME280;2351;50.812;12.872;2023-04-22T09:01:20;97461.56;;;21.63;30.56
5062;BME280;2351;50.812;12.872;2023-04-22T09:03:54;97461.31;;;21.71;29.77
5062;BME280;2351;50.812;12.872;2023-04-22T09:06:30;97450.19;;;21.54;30.29
5062;BME280;2351;50.812;12.872;2023-04-22T09:09:02;97453.47;;;21.63;31.19
5062;BME280;2351;50.812;12.872;2023-04-22T09:11:35;97455.72;;;21.73;30.71
5062;BME280;2351;50.812;12.872;2023-04-22T09:14:06;97451.97;;;21.74;30.45
5062;BME280;2351;50.812;12.872;2023-04-22T09:16:40;97443.66;;;21.82;30.66
5062;BME280;2351;50.812;12.872;2023-04-22T09:19:13;97449.94;;;21.69;30.63
5062;BME280;2351;50.812;12.872;2023-04-22T09:21:45;97447.56;;;21.41;29.53
5062;BME280;2351;50.812;12.872;2023-04-22T09:24:17;97446.00;;;21.13;30.49
5062;BME280;2351;50.812;12.872;2023-04-22T09:26:49;97439.41;;;21.15;30.80
5062;BME280;2351;50.812;12.872;2023-04-22T09:29:21;97441.03;;;21.23;31.25
5062;BME280;2351;50.812;12.872;2023-04-22T09:32:08;97437.06;;;21.26;31.31
5062;BME280;2351;50.812;12.872;2023-04-22T09:34:47;97440.59;;;21.26;31.59
5062;BME280;2351;50.812;12.872;2023-04-22T09:37:19;97440.59;;;21.19;31.20
5062;BME280;2351;50.812;12.872;2023-04-22T09:39:53;97433.59;;;21.18;31.59
5062;BME280;2351;50.812;12.872;2023-04-22T09:42:25;97438.53;;;21.28;31.33
5062;BME280;2351;50.812;12.872;2023-04-22T09:44:57;97432.09;;;21.29;31.06
5062;BME280;2351;50.812;12.872;2023-04-22T09:47:35;97435.00;;;21.28;31.07
5062;BME280;2351;50.812;12.872;2023-04-22T09:50:08;97431.66;;;21.32;31.15
5062;BME280;2351;50.812;12.872;2023-04-22T09:52:39;97428.97;;;21.32;31.26
5062;BME280;2351;50.812;12.872;2023-04-22T09:55:11;97423.00;;;21.24;30.82
5062;BME280;2351;50.812;12.872;2023-04-22T09:57:43;97423.19;;;21.29;32.26
5062;BME280;2351;50.812;12.872;2023-04-22T10:00:15;97433.72;;;21.30;30.68
5062;BME280;2351;50.812;12.872;2023-04-22T10:02:49;97432.34;;;21.21;31.41
5062;BME280;2351;50.812;12.872;2023-04-22T10:05:21;97433.16;;;21.28;32.06
5062;BME280;2351;50.812;12.872;2023-04-22T10:07:52;97430.97;;;21.50;31.67
5062;BME280;2351;50.812;12.872;2023-04-22T10:10:24;97437.56;;;19.68;32.37
5062;BME280;2351;50.812;12.872;2023-04-22T10:12:56;97434.97;;;20.15;32.65
5062;BME280;2351;50.812;12.872;2023-04-22T10:15:31;97428.75;;;20.61;32.81
5062;BME280;2351;50.812;12.872;2023-04-22T10:18:09;97425.88;;;20.63;32.35
5062;BME280;2351;50.812;12.872;2023-04-22T10:20:42;97427.69;;;20.89;32.70
5062;BME280;2351;50.812;12.872;2023-04-22T10:23:17;97430.25;;;21.23;32.56
5062;BME280;2351;50.812;12.872;2023-04-22T10:25:52;97426.50;;;21.31;31.44
5062;BME280;2351;50.812;12.872;2023-04-22T10:28:27;97418.44;;;20.45;32.33
5062;BME280;2351;50.812;12.872;2023-04-22T10:31:05;97420.06;;;20.73;32.96
5062;BME280;2351;50.812;12.872;2023-04-22T10:33:39;97414.59;;;21.00;31.79
5062;BME280;2351;50.812;12.872;2023-04-22T10:36:15;97422.25;;;21.03;30.72
5062;BME280;2351;50.812;12.872;2023-04-22T10:39:14;97420.66;;;19.81;33.25
5062;BME280;2351;50.812;12.872;2023-04-22T10:42:06;97417.59;;;20.51;33.59
5062;BME280;2351;50.812;12.872;2023-04-22T10:44:47;97426.06;;;20.82;31.76
5062;BME280;2351;50.812;12.872;2023-04-22T10:47:27;97423.41;;;20.48;31.12
5062;BME280;2351;50.812;12.872;2023-04-22T10:50:21;97421.50;;;20.69;32.35
5062;BME280;2351;50.812;12.872;2023-04-22T10:52:55;97421.56;;;21.21;32.71
5062;BME280;2351;50.812;12.872;2023-04-22T10:55:48;97423.44;;;21.66;32.42
5062;BME280;2351;50.812;12.872;2023-04-22T10:58:21;97416.16;;;20.49;31.06
5062;BME280;2351;50.812;12.872;2023-04-22T11:00:54;97414.00;;;21.04;30.26
5062;BME280;2351;50.812;12.872;2023-04-22T11:03:29;97408.16;;;21.14;30.87
5062;BME280;2351;50.812;12.872;2023-04-22T11:06:16;97414.47;;;20.54;30.21
5062;BME280;2351;50.812;12.872;2023-04-22T11:08:49;97414.66;;;19.79;31.66
5062;BME280;2351;50.812;12.872;2023-04-22T11:11:36;97414.59;;;19.45;32.21
5062;BME280;2351;50.812;12.872;2023-04-22T11:14:09;97407.09;;;19.27;33.04
5062;BME280;2351;50.812;12.872;2023-04-22T11:16:45;97394.28;;;20.11;33.68
5062;BME280;2351;50.812;12.872;2023-04-22T11:19:17;97394.63;;;20.62;32.55
5062;BME280;2351;50.812;12.872;2023-04-22T11:21:52;97397.69;;;20.92;31.39
5062;BME280;2351;50.812;12.872;2023-04-22T11:24:23;97384.97;;;21.13;29.48
5062;BME280;2351;50.812;12.872;2023-04-22T11:26:55;97380.91;;;20.97;30.37
5062;BME280;2351;50.812;12.872;2023-04-22T11:29:27;97389.69;;;20.59;29.58
5062;BME280;2351;50.812;12.872;2023-04-22T11:31:59;97389.53;;;20.13;30.85
5062;BME280;2351;50.812;12.872;2023-04-22T11:34:30;97386.41;;;20.03;31.97
5062;BME280;2351;50.812;12.872;2023-04-22T11:37:04;97386.56;;;20.55;31.86
5062;BME280;2351;50.812;12.872;2023-04-22T11:39:35;97380.69;;;20.99;31.92
5062;BME280;2351;50.812;12.872;2023-04-22T11:42:07;97384.97;;;20.27;30.03
5062;BME280;2351;50.812;12.872;2023-04-22T11:44:39;97383.66;;;20.84;31.36
5062;BME280;2351;50.812;12.872;2023-04-22T11:47:11;97369.38;;;21.29;30.11
5062;BME280;2351;50.812;12.872;2023-04-22T11:49:53;97374.59;;;20.58;30.01
5062;BME280;2351;50.812;12.872;2023-04-22T11:52:43;97376.69;;;20.29;30.83
5062;BME280;2351;50.812;12.872;2023-04-22T11:55:17;97374.84;;;20.23;32.10
5062;BME280;2351;50.812;12.872;2023-04-22T11:57:52;97379.34;;;20.42;31.17
5062;BME280;2351;50.812;12.872;2023-04-22T12:00:28;97382.06;;;20.02;31.21
5062;BME280;2351;50.812;12.872;2023-04-22T12:03:02;97372.78;;;19.91;31.79
5062;BME280;2351;50.812;12.872;2023-04-22T12:05:35;97376.06;;;20.40;32.54
5062;BME280;2351;50.812;12.872;2023-04-22T12:08:10;97372.81;;;21.04;33.24
5062;BME280;2351;50.812;12.872;2023-04-22T12:10:44;97366.75;;;21.54;31.74
5062;BME280;2351;50.812;12.872;2023-04-22T12:13:20;97371.25;;;21.28;31.10
5062;BME280;2351;50.812;12.872;2023-04-22T12:15:53;97362.22;;;20.30;31.71
5062;BME280;2351;50.812;12.872;2023-04-22T12:18:29;97363.34;;;20.95;32.21
5062;BME280;2351;50.812;12.872;2023-04-22T12:21:07;97354.72;;;21.57;32.21
5062;BME280;2351;50.812;12.872;2023-04-22T12:23:44;97351.94;;;21.38;30.25
5062;BME280;2351;50.812;12.872;2023-04-22T12:26:18;97358.47;;;20.58;30.42
5062;BME280;2351;50.812;12.872;2023-04-22T12:28:50;97352.13;;;21.04;30.62
5062;BME280;2351;50.812;12.872;2023-04-22T12:31:22;97349.41;;;21.50;31.19
5062;BME280;2351;50.812;12.872;2023-04-22T12:33:54;97346.81;;;21.94;30.69
5062;BME280;2351;50.812;12.872;2023-04-22T12:36:26;97345.59;;;22.15;29.50
5062;BME280;2351;50.812;12.872;2023-04-22T12:38:59;97345.59;;;21.64;29.48
5062;BME280;2351;50.812;12.872;2023-04-22T12:41:31;97343.13;;;21.88;29.20
5062;BME280;2351;50.812;12.872;2023-04-22T12:44:03;97339.84;;;21.86;28.70
5062;BME280;2351;50.812;12.872;2023-04-22T12:46:34;97340.81;;;21.66;29.25
5062;BME280;2351;50.812;12.872;2023-04-22T12:49:07;97344.91;;;22.01;29.75
5062;BME280;2351;50.812;12.872;2023-04-22T12:51:39;97340.34;;;22.20;29.71
5062;BME280;2351;50.812;12.872;2023-04-22T12:54:12;97336.53;;;21.84;29.06
5062;BME280;2351;50.812;12.872;2023-04-22T12:56:44;97330.78;;;22.24;29.57
5062;BME280;2351;50.812;12.872;2023-04-22T12:59:16;97327.56;;;22.60;29.98
5062;BME280;2351;50.812;12.872;2023-04-22T13:01:48;97332.78;;;22.92;30.06
5062;BME280;2351;50.812;12.872;2023-04-22T13:04:20;97314.53;;;23.06;29.44
5062;BME280;2351;50.812;12.872;2023-04-22T13:06:51;97329.44;;;23.08;29.56
5062;BME280;2351;50.812;12.872;2023-04-22T13:09:27;97306.91;;;23.02;28.81
5062;BME280;2351;50.812;12.872;2023-04-22T13:11:58;97317.97;;;22.01;28.98
5062;BME280;2351;50.812;12.872;2023-04-22T13:14:30;97319.84;;;21.36;31.13
5062;BME280;2351;50.812;12.872;2023-04-22T13:17:02;97316.88;;;21.84;31.29
5062;BME280;2351;50.812;12.872;2023-04-22T13:19:34;97308.31;;;22.12;30.59
5062;BME280;2351;50.812;12.872;2023-04-22T13:22:06;97314.34;;;22.33;30.42
5062;BME280;2351;50.812;12.872;2023-04-22T13:24:39;97319.09;;;21.29;30.93
5062;BME280;2351;50.812;12.872;2023-04-22T13:27:11;97301.13;;;21.23;31.85
5062;BME280;2351;50.812;12.872;2023-04-22T13:29:43;97297.56;;;21.61;31.81
5062;BME280;2351;50.812;12.872;2023-04-22T13:32:15;97299.63;;;21.59;31.91
5062;BME280;2351;50.812;12.872;2023-04-22T13:34:47;97287.69;;;21.80;32.59
5062;BME280;2351;50.812;12.872;2023-04-22T13:37:19;97283.50;;;22.29;32.60
5062;BME280;2351;50.812;12.872;2023-04-22T13:39:52;97273.22;;;22.75;31.95
5062;BME280;2351;50.812;12.872;2023-04-22T13:42:24;97271.28;;;23.12;31.91
5062;BME280;2351;50.812;12.872;2023-04-22T13:44:56;97276.19;;;23.34;31.29